Time;durP1;ratioP1;P1;durP2;ratioP2;P2;SDS_P1;SDS_P2;PMS_P1;PMS_P2;Temp;Humidity;BMP_temperature;BMP_pressure;BME280_temperature;BME280_humidity;BME280_pressure;Samples;Min_cycle;Max_cycle;Signal;HPM_P1;HPM_P2
2022/09/07 00:02:38;;;;;;;8.50;2.10;;;11.60;88.70;;;;;;4381750;28;657724;-66
2022/09/07 00:05:27;;;;;;;5.43;1.85;;;11.60;88.70;;;;;;4389100;28;657748;-66
2022/09/07 00:08:14;;;;;;;5.70;2.30;;;11.60;88.70;;;;;;4404285;28;658623;-68
2022/09/07 00:11:02;;;;;;;4.25;2.30;;;11.70;88.80;;;;;;4382449;28;658467;-67
2022/09/07 00:13:50;;;;;;;4.43;2.07;;;11.60;89.40;;;;;;4399885;28;657776;-67
2022/09/07 00:16:37;;;;;;;5.37;2.57;;;11.60;89.60;;;;;;4377443;28;659750;-67
2022/09/07 00:19:26;;;;;;;12.20;2.63;;;11.60;89.60;;;;;;4403861;28;657345;-68
2022/09/07 00:22:13;;;;;;;8.63;2.50;;;11.60;90.00;;;;;;4376392;28;659765;-67
2022/09/07 00:25:01;;;;;;;5.77;2.30;;;11.60;90.00;;;;;;4382034;28;657761;-67
2022/09/07 00:27:48;;;;;;;4.77;2.33;;;11.60;89.10;;;;;;4404297;28;658750;-65
2022/09/07 00:30:40;;;;;;;6.35;2.40;;;11.70;88.80;;;;;;4381710;28;657810;-65
2022/09/07 00:33:27;;;;;;;6.63;2.23;;;11.60;90.00;;;;;;4384768;28;659258;-67
2022/09/07 00:36:16;;;;;;;10.33;2.80;;;11.40;90.30;;;;;;4406260;28;658390;-68
2022/09/07 00:39:04;;;;;;;6.70;2.43;;;11.30;90.80;;;;;;4376630;28;660559;-68
2022/09/07 00:41:51;;;;;;;4.83;2.10;;;11.20;91.10;;;;;;4380211;28;657484;-66
2022/09/07 00:44:59;;;;;;;13.63;2.80;;;11.30;91.20;;;;;;4400058;28;658716;-65
2022/09/07 00:47:51;;;;;;;6.07;2.53;;;11.20;91.50;;;;;;4355513;28;659239;-66
2022/09/07 00:50:39;;;;;;;4.60;2.30;;;11.20;91.40;;;;;;4377623;28;658415;-67
2022/09/07 00:53:30;;;;;;;5.03;2.43;;;11.10;91.40;;;;;;4384326;28;657657;-68
2022/09/07 00:56:17;;;;;;;7.07;2.50;;;11.10;91.50;;;;;;4378360;28;658463;-68
2022/09/07 00:59:05;;;;;;;7.00;2.30;;;11.10;91.80;;;;;;4399376;28;657978;-67
2022/09/07 01:01:52;;;;;;;7.07;2.57;;;11.00;92.10;;;;;;4380078;28;658733;-65
2022/09/07 01:04:39;;;;;;;4.60;2.33;;;10.90;92.90;;;;;;4399657;28;657623;-68
2022/09/07 01:07:27;;;;;;;8.77;2.33;;;10.90;92.80;;;;;;4383078;28;657088;-68
2022/09/07 01:10:15;;;;;;;5.27;2.40;;;10.90;93.10;;;;;;4403439;28;659796;-68
2022/09/07 01:13:03;;;;;;;5.70;2.27;;;10.90;93.10;;;;;;4380503;28;658378;-67
2022/09/07 01:15:56;;;;;;;4.53;2.43;;;10.90;93.50;;;;;;4373112;28;657827;-65
2022/09/07 01:18:48;;;;;;;5.87;2.60;;;11.00;93.10;;;;;;4378843;28;659541;-67
2022/09/07 01:21:40;;;;;;;9.37;2.80;;;11.00;93.20;;;;;;4358980;28;657481;-67
2022/09/07 01:24:41;;;;;;;9.07;2.60;;;11.00;93.50;;;;;;4376594;28;657731;-68
2022/09/07 01:28:10;;;;;;;7.77;2.63;;;11.00;93.30;;;;;;4376732;28;658107;-68
2022/09/07 01:31:01;;;;;;;4.67;2.23;;;11.10;93.60;;;;;;4375496;28;658301;-65
2022/09/07 01:33:51;;;;;;;9.07;2.78;;;11.10;93.30;;;;;;4372464;28;658355;-66
2022/09/07 01:36:41;;;;;;;7.37;2.80;;;11.10;93.20;;;;;;4374205;28;658316;-68
2022/09/07 01:39:31;;;;;;;5.97;2.77;;;11.10;93.60;;;;;;4378014;28;657638;-68
2022/09/07 01:42:20;;;;;;;5.53;2.80;;;11.20;93.20;;;;;;4378014;28;657804;-68
2022/09/07 01:45:11;;;;;;;8.80;2.53;;;11.10;93.60;;;;;;4377005;28;658711;-68
2022/09/07 01:48:01;;;;;;;7.97;3.03;;;11.20;93.30;;;;;;4375410;28;658738;-68
2022/09/07 01:50:51;;;;;;;7.63;2.40;;;11.20;93.20;;;;;;4377169;28;658681;-65
2022/09/07 01:53:39;;;;;;;9.47;2.80;;;11.20;93.70;;;;;;4376238;28;657720;-66
2022/09/07 01:56:28;;;;;;;7.87;2.57;;;11.20;93.80;;;;;;4379902;28;657755;-67
2022/09/07 01:59:18;;;;;;;10.77;2.90;;;11.20;94.00;;;;;;4379707;28;657764;-66
2022/09/07 02:02:07;;;;;;;9.73;2.50;;;11.20;94.10;;;;;;4380230;28;658112;-65
2022/09/07 02:04:58;;;;;;;7.63;2.70;;;11.10;94.40;;;;;;4401925;28;657248;-67
2022/09/07 02:07:46;;;;;;;11.70;2.90;;;11.20;94.60;;;;;;4366359;28;657493;-64
2022/09/07 02:10:35;;;;;;;4.90;2.70;;;11.20;94.60;;;;;;4398012;28;658395;-67
2022/09/07 02:13:23;;;;;;;5.43;2.80;;;11.20;94.60;;;;;;4378227;28;658447;-67
2022/09/07 02:16:11;;;;;;;8.83;3.10;;;11.20;94.70;;;;;;4381402;28;659841;-67
2022/09/07 02:19:01;;;;;;;6.10;2.87;;;11.10;95.00;;;;;;4399279;28;657226;-68
2022/09/07 02:21:53;;;;;;;8.07;3.30;;;11.10;95.30;;;;;;4377837;28;659117;-67
2022/09/07 02:24:41;;;;;;;5.50;2.70;;;11.10;95.20;;;;;;4364624;28;657381;-64
2022/09/07 02:27:30;;;;;;;6.17;2.73;;;11.00;95.70;;;;;;4400482;28;658613;-68
2022/09/07 02:30:17;;;;;;;7.80;3.10;;;11.10;95.40;;;;;;4381299;28;658873;-67
2022/09/07 02:33:05;;;;;;;9.03;3.20;;;11.10;95.50;;;;;;4404733;28;657691;-68
2022/09/07 02:35:52;;;;;;;8.10;3.03;;;11.10;95.30;;;;;;4388043;28;659117;-67
2022/09/07 02:38:41;;;;;;;8.53;3.23;;;11.10;95.50;;;;;;4412145;28;657732;-67
2022/09/07 02:41:32;;;;;;;5.67;2.80;;;11.00;95.40;;;;;;4382876;28;658354;-67
2022/09/07 02:44:21;;;;;;;9.60;2.90;;;11.00;95.70;;;;;;4383957;28;657374;-67
2022/09/07 02:47:18;;;;;;;7.27;3.03;;;10.90;95.70;;;;;;4404605;28;657298;-67
2022/09/07 02:50:41;;;;;;;7.60;2.87;;;10.80;96.00;;;;;;4366444;28;657981;-67
2022/09/07 02:53:47;;;;;;;6.43;3.10;;;10.70;96.30;;;;;;4388968;28;658594;-67
2022/09/07 02:56:41;;;;;;;8.07;3.17;;;10.60;96.70;;;;;;4390934;28;657476;-68
2022/09/07 02:59:38;;;;;;;7.97;3.20;;;10.50;97.00;;;;;;4386010;28;658052;-68
2022/09/07 03:02:27;;;;;;;6.50;3.20;;;10.50;97.50;;;;;;4374003;28;657369;-66
2022/09/07 03:05:18;;;;;;;9.03;3.10;;;10.30;98.10;;;;;;4414943;28;657680;-67
2022/09/07 03:08:06;;;;;;;8.60;2.80;;;10.10;99.90;;;;;;4378839;28;657112;-65
2022/09/07 03:10:55;;;;;;;5.97;3.10;;;9.90;99.90;;;;;;4406060;28;658289;-67
2022/09/07 03:13:42;;;;;;;10.17;2.97;;;9.80;99.90;;;;;;4385794;28;658115;-67
2022/09/07 03:16:29;;;;;;;7.83;3.33;;;9.80;99.90;;;;;;4406328;28;657307;-68
2022/09/07 03:19:16;;;;;;;6.07;3.20;;;9.60;99.90;;;;;;4393405;28;657519;-66
2022/09/07 03:22:03;;;;;;;13.97;3.10;;;9.50;99.90;;;;;;4410694;28;657708;-67
2022/09/07 03:24:50;;;;;;;7.43;3.40;;;9.40;99.90;;;;;;4392618;28;657524;-67
2022/09/07 03:27:39;;;;;;;6.53;3.23;;;9.40;99.90;;;;;;4412077;28;657698;-67
2022/09/07 03:30:26;;;;;;;10.10;3.63;;;9.40;99.90;;;;;;4390517;28;656726;-68
2022/09/07 03:33:14;;;;;;;9.57;3.57;;;9.40;99.90;;;;;;4408454;28;659037;-67
2022/09/07 03:36:02;;;;;;;7.50;3.50;;;9.40;99.90;;;;;;4385064;28;657755;-67
2022/09/07 03:38:49;;;;;;;7.63;2.97;;;9.30;99.90;;;;;;4409978;28;656183;-68
2022/09/07 03:41:36;;;;;;;8.47;3.30;;;9.30;99.90;;;;;;4366990;28;657012;-67
2022/09/07 03:44:24;;;;;;;9.23;3.60;;;9.30;99.90;;;;;;4389646;28;656809;-68
2022/09/07 03:47:12;;;;;;;9.93;3.63;;;9.20;99.90;;;;;;4365347;28;657358;-66
2022/09/07 03:49:59;;;;;;;7.57;3.33;;;9.10;99.90;;;;;;4388430;28;656941;-67
2022/09/07 03:52:46;;;;;;;7.90;3.53;;;9.10;99.90;;;;;;4363746;28;657056;-67
2022/09/07 03:55:33;;;;;;;8.87;3.53;;;9.10;99.90;;;;;;4394269;28;657092;-67
2022/09/07 03:58:20;;;;;;;8.97;3.60;;;9.00;99.90;;;;;;4368164;28;656387;-65
2022/09/07 04:01:11;;;;;;;6.27;3.30;;;9.00;99.90;;;;;;4389693;28;656574;-67
2022/09/07 04:03:58;;;;;;;10.13;3.77;;;9.00;99.90;;;;;;4363277;28;656721;-66
2022/09/07 04:06:45;;;;;;;10.13;3.27;;;9.00;99.90;;;;;;4363041;28;657904;-65
2022/09/07 04:09:32;;;;;;;8.10;3.60;;;9.00;99.90;;;;;;4391818;28;657705;-65
2022/09/07 04:12:20;;;;;;;6.87;3.30;;;9.00;99.90;;;;;;4382625;28;656441;-65
2022/09/07 04:15:08;;;;;;;11.13;3.40;;;8.90;99.90;;;;;;4393580;28;656977;-67
2022/09/07 04:17:57;;;;;;;13.87;4.07;;;8.90;99.90;;;;;;4366199;28;657838;-65
2022/09/07 04:20:44;;;;;;;9.73;3.60;;;8.70;99.90;;;;;;4384858;28;658440;-66
2022/09/07 04:23:31;;;;;;;12.20;3.60;;;8.70;99.90;;;;;;4369298;28;658099;-67
2022/09/07 04:26:19;;;;;;;8.97;3.53;;;8.70;99.90;;;;;;4382589;28;658846;-67
2022/09/07 04:29:07;;;;;;;9.17;3.53;;;8.70;99.90;;;;;;4365394;28;656974;-67
2022/09/07 04:31:54;;;;;;;13.00;3.83;;;8.70;99.90;;;;;;4384902;28;656373;-67
2022/09/07 04:34:43;;;;;;;12.87;3.93;;;8.70;99.90;;;;;;4360482;28;657843;-67
2022/09/07 04:37:30;;;;;;;9.13;4.23;;;8.70;99.90;;;;;;4377191;28;657414;-65
2022/09/07 04:40:17;;;;;;;11.52;5.22;;;8.80;99.90;;;;;;4397655;28;656168;-67
2022/09/07 04:43:06;;;;;;;17.93;5.37;;;9.00;99.90;;;;;;4403748;28;657722;-66
2022/09/07 04:45:54;;;;;;;11.20;4.93;;;9.00;99.90;;;;;;4378124;28;657631;-67
2022/09/07 04:48:41;;;;;;;9.03;4.30;;;9.10;99.90;;;;;;4383656;28;657249;-67
2022/09/07 04:51:30;;;;;;;13.90;4.77;;;9.10;99.90;;;;;;4407474;28;657053;-67
2022/09/07 04:54:17;;;;;;;7.13;4.05;;;9.20;99.90;;;;;;4386602;28;659331;-67
2022/09/07 04:57:05;;;;;;;9.20;4.07;;;9.30;99.90;;;;;;4411316;28;657091;-67
2022/09/07 04:59:52;;;;;;;9.77;4.10;;;9.30;99.90;;;;;;4385155;28;658308;-67
2022/09/07 05:02:39;;;;;;;9.70;4.23;;;9.30;99.90;;;;;;4409301;28;656999;-67
2022/09/07 05:05:26;;;;;;;11.67;4.70;;;9.50;99.90;;;;;;4390740;28;656492;-67
2022/09/07 05:08:14;;;;;;;10.77;3.93;;;9.60;99.90;;;;;;4410363;28;658979;-66
2022/09/07 05:11:02;;;;;;;13.90;4.40;;;9.80;99.90;;;;;;4386802;28;657997;-67
2022/09/07 05:13:49;;;;;;;7.97;4.30;;;9.90;99.90;;;;;;4407954;28;661479;-66
2022/09/07 05:16:36;;;;;;;10.03;4.23;;;10.00;99.90;;;;;;4391279;28;656330;-67
2022/09/07 05:19:23;;;;;;;10.93;4.00;;;10.10;99.90;;;;;;4407536;28;659840;-67
2022/09/07 05:22:10;;;;;;;7.93;3.65;;;10.20;99.90;;;;;;4388230;28;658723;-66
2022/09/07 05:24:59;;;;;;;9.90;3.63;;;10.40;99.90;;;;;;4403729;28;658936;-68
2022/09/07 05:27:46;;;;;;;8.57;3.63;;;10.50;99.90;;;;;;4389755;28;657520;-66
2022/09/07 05:30:33;;;;;;;11.50;4.03;;;10.60;99.90;;;;;;4403251;28;658277;-67
2022/09/07 05:33:20;;;;;;;7.07;3.80;;;10.70;99.90;;;;;;4384880;28;658734;-65
2022/09/07 05:36:08;;;;;;;11.33;4.10;;;10.80;99.90;;;;;;4408820;28;658774;-67
2022/09/07 05:38:55;;;;;;;11.30;4.40;;;10.90;99.90;;;;;;4399696;28;658518;-66
2022/09/07 05:41:44;;;;;;;10.37;4.00;;;11.00;99.90;;;;;;4404285;28;659992;-67
2022/09/07 05:44:31;;;;;;;10.43;3.80;;;11.00;99.90;;;;;;4385494;28;658599;-67
2022/09/07 05:47:18;;;;;;;9.07;3.90;;;11.10;99.90;;;;;;4402667;28;659452;-68
2022/09/07 05:50:06;;;;;;;8.80;4.40;;;11.20;99.90;;;;;;4387079;28;657507;-66
2022/09/07 05:52:53;;;;;;;13.33;4.17;;;11.30;99.90;;;;;;4405386;28;657712;-67
2022/09/07 05:55:40;;;;;;;10.53;4.90;;;11.40;99.90;;;;;;4384354;28;658792;-66
2022/09/07 05:58:29;;;;;;;13.10;4.47;;;11.50;99.90;;;;;;4402860;28;660688;-67
2022/09/07 06:01:16;;;;;;;12.17;4.40;;;11.60;99.90;;;;;;4384892;28;658827;-66
2022/09/07 06:04:03;;;;;;;10.17;4.57;;;11.80;99.90;;;;;;4401183;28;659663;-67
2022/09/07 06:06:50;;;;;;;13.67;4.97;;;11.90;99.90;;;;;;4385174;28;659252;-67
2022/09/07 06:09:38;;;;;;;12.10;4.90;;;12.00;99.90;;;;;;4404781;28;660619;-67
2022/09/07 06:12:25;;;;;;;10.87;4.60;;;12.20;99.90;;;;;;4392798;28;659028;-65
2022/09/07 06:15:14;;;;;;;13.40;4.83;;;12.20;99.90;;;;;;4404059;28;659257;-67
2022/09/07 06:18:01;;;;;;;20.70;5.47;;;12.20;99.90;;;;;;4381025;28;659487;-66
2022/09/07 06:20:48;;;;;;;14.10;4.30;;;12.30;99.90;;;;;;4403602;28;659964;-67
2022/09/07 06:23:36;;;;;;;13.70;4.30;;;12.40;99.90;;;;;;4390136;28;659170;-66
2022/09/07 06:26:23;;;;;;;12.60;4.50;;;12.50;99.90;;;;;;4409005;28;659066;-67
2022/09/07 06:29:10;;;;;;;15.80;4.60;;;12.60;99.90;;;;;;4388744;28;658576;-66
2022/09/07 06:31:59;;;;;;;12.27;4.23;;;12.80;99.90;;;;;;4412255;28;659478;-66
2022/09/07 06:34:46;;;;;;;16.40;5.03;;;13.00;99.90;;;;;;4386738;28;658276;-67
2022/09/07 06:37:33;;;;;;;14.47;4.60;;;13.10;99.90;;;;;;4409338;28;658496;-68
2022/09/07 06:40:21;;;;;;;15.07;4.37;;;13.20;99.90;;;;;;4385029;28;659175;-66
2022/09/07 06:43:08;;;;;;;15.77;4.40;;;13.30;99.90;;;;;;4407113;28;659359;-67
2022/09/07 06:45:55;;;;;;;14.40;5.07;;;13.50;99.90;;;;;;4387472;28;658535;-67
2022/09/07 06:48:44;;;;;;;23.73;4.50;;;13.70;99.90;;;;;;4412711;28;660251;-68
2022/09/07 06:51:31;;;;;;;15.20;4.50;;;13.90;99.90;;;;;;4391087;28;658731;-67
2022/09/07 06:54:18;;;;;;;18.90;4.87;;;14.10;99.90;;;;;;4402183;28;659900;-67
2022/09/07 06:57:07;;;;;;;18.77;5.25;;;14.40;99.90;;;;;;4385866;28;658391;-66
2022/09/07 06:59:54;;;;;;;15.13;4.80;;;14.50;99.90;;;;;;4403332;28;659833;-68
2022/09/07 07:02:41;;;;;;;13.10;4.70;;;14.70;99.90;;;;;;4387312;28;658821;-68
2022/09/07 07:05:30;;;;;;;14.77;4.47;;;14.90;99.90;;;;;;4407631;28;658553;-68
2022/09/07 07:08:17;;;;;;;15.07;4.73;;;15.10;99.90;;;;;;4389377;28;659811;-66
2022/09/07 07:11:06;;;;;;;12.27;4.50;;;15.20;99.90;;;;;;4402961;28;658250;-68
2022/09/07 07:13:53;;;;;;;18.80;4.60;;;15.30;99.90;;;;;;4380643;28;659675;-68
2022/09/07 07:16:41;;;;;;;13.57;4.50;;;15.50;99.90;;;;;;4386081;28;659950;-68
2022/09/07 07:19:28;;;;;;;14.13;4.53;;;15.60;99.90;;;;;;4411062;28;659876;-68
2022/09/07 07:22:17;;;;;;;21.20;4.77;;;15.80;99.90;;;;;;4385228;28;659088;-66
2022/09/07 07:25:04;;;;;;;20.13;4.90;;;16.00;99.90;;;;;;4403769;28;659172;-68
2022/09/07 07:27:52;;;;;;;11.73;4.43;;;16.20;99.90;;;;;;4388343;28;659356;-66
2022/09/07 07:30:39;;;;;;;12.07;4.27;;;16.50;99.90;;;;;;4398793;28;659113;-68
2022/09/07 07:33:29;;;;;;;10.23;4.10;;;16.70;99.90;;;;;;4387866;28;660020;-68
2022/09/07 07:36:17;;;;;;;11.07;4.10;;;16.80;99.90;;;;;;4388187;28;658601;-68
2022/09/07 07:39:05;;;;;;;15.77;4.03;;;17.00;99.90;;;;;;4402551;28;658876;-68
2022/09/07 07:41:52;;;;;;;10.60;4.60;;;17.10;99.70;;;;;;4380907;28;660244;-68
2022/09/07 07:44:40;;;;;;;13.87;4.20;;;17.30;97.90;;;;;;4404569;28;659310;-66
2022/09/07 07:47:27;;;;;;;13.40;4.33;;;17.40;95.90;;;;;;4408427;28;658259;-68
2022/09/07 07:50:14;;;;;;;9.27;3.83;;;17.60;97.30;;;;;;4407101;28;659154;-68
2022/09/07 07:53:02;;;;;;;12.07;4.00;;;17.90;96.40;;;;;;4383954;28;657446;-68
2022/09/07 07:55:50;;;;;;;10.90;4.50;;;18.00;94.10;;;;;;4412474;28;658396;-68
2022/09/07 07:58:38;;;;;;;9.97;4.20;;;18.00;93.70;;;;;;4387098;28;660143;-68
2022/09/07 08:01:25;;;;;;;15.83;4.60;;;18.30;93.00;;;;;;4396797;28;657534;-66
2022/09/07 08:04:12;;;;;;;11.00;4.13;;;18.60;92.80;;;;;;4408365;28;659073;-69
2022/09/07 08:06:59;;;;;;;11.13;4.50;;;18.90;92.30;;;;;;4403203;28;658974;-68
2022/09/07 08:09:47;;;;;;;15.83;4.37;;;19.10;91.50;;;;;;4384509;28;659043;-69
2022/09/07 08:12:36;;;;;;;8.47;4.07;;;19.00;90.80;;;;;;4405350;28;659038;-69
2022/09/07 08:15:23;;;;;;;10.97;4.30;;;19.20;91.40;;;;;;4382459;28;658178;-69
2022/09/07 08:18:11;;;;;;;9.45;4.30;;;19.40;90.90;;;;;;4388695;28;658670;-67
2022/09/07 08:21:00;;;;;;;13.93;4.17;;;19.80;91.40;;;;;;4405502;28;658276;-69
2022/09/07 08:23:47;;;;;;;10.80;3.90;;;19.90;89.00;;;;;;4387349;28;658708;-69
2022/09/07 08:26:34;;;;;;;8.83;3.80;;;20.00;85.40;;;;;;4405687;28;658494;-68
2022/09/07 08:29:23;;;;;;;10.90;4.00;;;20.30;88.80;;;;;;4384473;28;657831;-69
2022/09/07 08:32:10;;;;;;;8.10;4.40;;;20.40;88.40;;;;;;4382945;28;658715;-66
2022/09/07 08:34:58;;;;;;;11.10;4.27;;;20.60;82.60;;;;;;4411125;28;658364;-68
2022/09/07 08:37:45;;;;;;;9.40;3.90;;;20.60;79.60;;;;;;4395760;28;658552;-66
2022/09/07 08:40:32;;;;;;;10.77;4.60;;;20.70;77.70;;;;;;4408741;28;657813;-69
2022/09/07 08:43:39;;;;;;;10.13;4.43;;;20.80;77.60;;;;;;4401425;28;658603;-67
2022/09/07 08:46:30;;;;;;;12.37;4.20;;;21.00;77.50;;;;;;4384774;28;659027;-68
2022/09/07 08:49:19;;;;;;;20.07;4.17;;;21.10;75.30;;;;;;4378118;28;660119;-67
2022/09/07 08:52:10;;;;;;;11.87;3.40;;;21.20;77.40;;;;;;4382567;28;658896;-69
2022/09/07 08:55:00;;;;;;;12.40;3.47;;;21.20;70.30;;;;;;4386100;28;659236;-69
2022/09/07 08:57:50;;;;;;;11.03;3.33;;;21.20;71.90;;;;;;4383104;28;659866;-68
2022/09/07 09:00:38;;;;;;;7.80;3.83;;;21.10;71.00;;;;;;4382824;28;659830;-69
2022/09/07 09:03:27;;;;;;;7.07;3.27;;;21.20;69.00;;;;;;4386228;28;657402;-66
2022/09/07 09:06:19;;;;;;;7.80;3.20;;;21.30;68.80;;;;;;4402270;28;657759;-69
2022/09/07 09:09:12;;;;;;;9.07;3.23;;;21.60;69.20;;;;;;4361694;28;658905;-68
2022/09/07 09:12:07;;;;;;;8.40;3.27;;;21.90;69.20;;;;;;4383859;28;657805;-69
2022/09/07 09:15:02;;;;;;;6.63;3.40;;;22.10;68.60;;;;;;4385663;28;657636;-69
2022/09/07 09:17:52;;;;;;;7.60;3.30;;;22.10;68.60;;;;;;4385656;28;657365;-69
2022/09/07 09:20:44;;;;;;;8.20;3.13;;;22.10;68.80;;;;;;4382174;28;657402;-69
2022/09/07 09:23:33;;;;;;;10.13;3.47;;;22.40;65.40;;;;;;4384341;28;657456;-68
2022/09/07 09:26:22;;;;;;;16.57;3.90;;;22.80;66.10;;;;;;4381047;28;658416;-69
2022/09/07 09:29:13;;;;;;;9.07;3.67;;;22.70;66.20;;;;;;4401572;28;659120;-69
2022/09/07 09:32:01;;;;;;;11.33;3.60;;;22.80;65.50;;;;;;4362210;28;658650;-69
2022/09/07 09:34:59;;;;;;;8.10;3.30;;;22.90;64.80;;;;;;4408678;28;659811;-68
2022/09/07 09:37:48;;;;;;;10.43;3.20;;;23.00;62.80;;;;;;4389544;28;657838;-69
2022/09/07 09:40:36;;;;;;;8.73;3.63;;;22.90;65.10;;;;;;4390059;28;658647;-66
2022/09/07 09:43:24;;;;;;;13.47;3.57;;;22.80;63.20;;;;;;4407434;28;658398;-69
2022/09/07 09:46:18;;;;;;;10.03;3.70;;;23.10;62.60;;;;;;4385872;28;659333;-69
2022/09/07 09:49:19;;;;;;;9.47;3.30;;;23.10;62.70;;;;;;4362105;28;658826;-68
2022/09/07 09:52:12;;;;;;;10.27;3.63;;;23.40;63.00;;;;;;4379170;28;657810;-68
2022/09/07 09:55:01;;;;;;;9.77;3.20;;;23.70;66.40;;;;;;4403644;28;658651;-67
2022/09/07 09:57:51;;;;;;;7.30;3.27;;;23.60;59.60;;;;;;4402293;28;658050;-68
2022/09/07 10:00:39;;;;;;;10.73;3.40;;;23.60;62.40;;;;;;4383389;28;658333;-68
2022/09/07 10:03:26;;;;;;;7.13;2.80;;;23.80;63.40;;;;;;4386309;28;658666;-68
2022/09/07 10:06:15;;;;;;;8.10;3.63;;;24.00;60.50;;;;;;4403193;28;658677;-69
2022/09/07 10:09:02;;;;;;;7.40;3.40;;;23.80;64.10;;;;;;4387937;28;658584;-69
2022/09/07 10:11:55;;;;;;;8.30;3.87;;;24.30;60.20;;;;;;4403486;28;657736;-69
2022/09/07 10:14:43;;;;;;;12.37;3.53;;;23.90;59.90;;;;;;4360317;28;658043;-69
2022/09/07 10:17:32;;;;;;;11.57;3.77;;;23.70;63.40;;;;;;4386226;28;659084;-67
2022/09/07 10:20:33;;;;;;;11.90;3.57;;;23.90;62.40;;;;;;4401927;28;658896;-68
2022/09/07 10:23:21;;;;;;;12.87;3.80;;;24.00;61.40;;;;;;4362291;28;659338;-67
2022/09/07 10:26:20;;;;;;;10.90;3.43;;;24.00;64.30;;;;;;4405895;28;659638;-69
2022/09/07 10:29:17;;;;;;;12.00;4.00;;;24.00;61.60;;;;;;4361247;28;659432;-68
2022/09/07 10:32:20;;;;;;;9.30;3.80;;;24.30;62.60;;;;;;4380909;28;659230;-69
2022/09/07 10:35:12;;;;;;;12.70;3.80;;;24.40;60.20;;;;;;4362322;28;658777;-68
2022/09/07 10:38:04;;;;;;;13.13;4.38;;;24.90;60.20;;;;;;4381499;28;658856;-68
2022/09/07 10:40:55;;;;;;;15.38;4.00;;;25.30;59.80;;;;;;4382316;28;659059;-69
2022/09/07 10:43:43;;;;;;;8.95;3.65;;;24.30;58.60;;;;;;4384239;28;660878;-69
2022/09/07 10:46:38;;;;;;;11.38;3.80;;;25.00;60.00;;;;;;4393247;28;657322;-67
2022/09/07 10:49:27;;;;;;;9.57;3.58;;;25.60;57.30;;;;;;4374982;28;658561;-67
2022/09/07 10:52:18;;;;;;;4.45;3.00;;;25.80;57.90;;;;;;4402989;28;657965;-69
2022/09/07 10:55:08;;;;;;;12.35;3.55;;;26.10;55.00;;;;;;4370632;28;657681;-67
2022/09/07 10:58:02;;;;;;;8.15;3.45;;;26.20;56.50;;;;;;4388026;28;658581;-68
2022/09/07 11:00:57;;;;;;;6.57;3.80;;;26.30;56.40;;;;;;4385858;28;657805;-68
2022/09/07 11:03:57;;;;;;;8.02;3.55;;;26.20;55.10;;;;;;4389906;28;657811;-69
2022/09/07 11:06:46;;;;;;;8.63;3.53;;;25.60;55.50;;;;;;4383861;28;657732;-69
2022/09/07 11:09:47;;;;;;;9.93;3.63;;;25.10;58.30;;;;;;4386206;28;658769;-68
2022/09/07 11:12:35;;;;;;;8.38;3.55;;;25.00;58.60;;;;;;4392040;28;657764;-69
2022/09/07 11:15:24;;;;;;;12.82;3.30;;;25.20;58.70;;;;;;4390315;28;659006;-69
2022/09/07 11:18:14;;;;;;;11.30;3.40;;;25.80;56.70;;;;;;4390393;28;658809;-69
2022/09/07 11:21:03;;;;;;;7.60;3.42;;;25.30;59.30;;;;;;4389943;28;660056;-69
2022/09/07 11:23:53;;;;;;;7.88;2.90;;;25.90;56.20;;;;;;4391561;28;657438;-68
2022/09/07 11:26:42;;;;;;;6.97;2.88;;;26.30;55.00;;;;;;4390939;28;658007;-67
2022/09/07 11:29:32;;;;;;;10.50;3.47;;;27.10;56.00;;;;;;4411175;28;658427;-68
2022/09/07 11:32:21;;;;;;;5.40;3.03;;;26.60;53.40;;;;;;4403715;28;658861;-66
2022/09/07 11:35:15;;;;;;;7.78;2.88;;;26.40;56.30;;;;;;4405428;28;658314;-68
2022/09/07 11:38:06;;;;;;;7.60;3.28;;;26.60;54.40;;;;;;4358637;28;658576;-68
2022/09/07 11:41:01;;;;;;;12.25;3.33;;;27.20;55.40;;;;;;4386453;28;658642;-69
2022/09/07 11:43:53;;;;;;;5.93;2.72;;;26.50;52.70;;;;;;4383569;28;660039;-69
2022/09/07 11:46:41;;;;;;;5.97;3.20;;;26.80;53.50;;;;;;4370412;28;657152;-67
2022/09/07 11:49:29;;;;;;;10.27;3.17;;;27.40;53.10;;;;;;4408627;28;658152;-68
2022/09/07 11:52:22;;;;;;;8.30;3.22;;;27.60;52.90;;;;;;4380644;28;658546;-69
2022/09/07 11:55:12;;;;;;;5.85;3.28;;;27.40;51.50;;;;;;4385151;28;658009;-69
2022/09/07 11:58:16;;;;;;;8.27;3.58;;;27.10;52.60;;;;;;4378340;28;658084;-69
2022/09/07 12:01:10;;;;;;;13.13;3.05;;;27.30;53.00;;;;;;4391112;28;657292;-68
2022/09/07 12:04:30;;;;;;;8.63;3.10;;;27.10;52.20;;;;;;4381920;28;658668;-67
2022/09/07 12:07:33;;;;;;;10.27;3.50;;;27.00;52.60;;;;;;4356945;28;658223;-67
2022/09/07 12:10:35;;;;;;;9.07;3.30;;;26.80;52.00;;;;;;4389577;28;660556;-67
2022/09/07 12:14:07;;;;;;;6.10;3.08;;;27.30;53.00;;;;;;4362802;28;657924;-68
2022/09/07 12:17:26;;;;;;;4.85;2.75;;;27.30;52.00;;;;;;4380019;28;657831;-68
2022/09/07 12:20:15;;;;;;;5.68;2.90;;;26.80;54.10;;;;;;4382165;28;658441;-69
2022/09/07 12:23:03;;;;;;;8.32;3.08;;;27.60;53.20;;;;;;4385880;28;658130;-68
2022/09/07 12:25:52;;;;;;;5.60;3.10;;;28.10;51.50;;;;;;4393599;28;657849;-67
2022/09/07 12:29:04;;;;;;;7.80;3.05;;;27.80;51.00;;;;;;4411992;28;657755;-69
2022/09/07 12:31:52;;;;;;;7.07;2.90;;;27.80;52.60;;;;;;4386247;28;657419;-69
2022/09/07 12:35:00;;;;;;;5.38;2.85;;;27.90;51.60;;;;;;4412875;28;657938;-68
2022/09/07 12:37:47;;;;;;;8.15;2.97;;;27.90;51.60;;;;;;4364206;28;659065;-69
2022/09/07 12:40:59;;;;;;;6.57;2.67;;;28.50;50.40;;;;;;4402504;28;658021;-69
2022/09/07 12:44:05;;;;;;;7.05;3.22;;;28.70;48.80;;;;;;4387036;28;658261;-69
2022/09/07 12:46:59;;;;;;;10.02;3.15;;;29.00;49.30;;;;;;4358515;28;657789;-69
2022/09/07 12:50:11;;;;;;;6.78;3.20;;;28.90;48.60;;;;;;4376384;28;658249;-68
2022/09/07 12:53:20;;;;;;;11.38;2.72;;;29.10;48.40;;;;;;4383163;28;657617;-69
2022/09/07 12:56:38;;;;;;;5.07;2.90;;;29.30;47.90;;;;;;4360638;28;659214;-69
2022/09/07 12:59:36;;;;;;;5.40;2.95;;;29.10;51.20;;;;;;4364428;28;657227;-67
2022/09/07 13:02:49;;;;;;;7.50;3.22;;;29.20;47.90;;;;;;4384330;28;658309;-69
2022/09/07 13:05:54;;;;;;;6.53;2.83;;;28.60;48.10;;;;;;4359313;28;658474;-69
2022/09/07 13:09:13;;;;;;;7.25;3.00;;;29.00;49.00;;;;;;4383004;28;657629;-69
2022/09/07 13:12:04;;;;;;;6.03;3.35;;;28.80;47.70;;;;;;4364294;28;657645;-69
2022/09/07 13:14:52;;;;;;;7.33;3.30;;;28.80;48.60;;;;;;4386721;28;658184;-69
2022/09/07 13:17:41;;;;;;;7.68;2.97;;;28.40;49.60;;;;;;4402461;28;657441;-69
2022/09/07 13:20:31;;;;;;;5.55;3.00;;;28.70;49.50;;;;;;4382661;28;659175;-69
2022/09/07 13:23:22;;;;;;;8.02;3.10;;;28.40;49.30;;;;;;4383535;28;658220;-68
2022/09/07 13:26:10;;;;;;;6.93;2.72;;;28.70;50.00;;;;;;4380330;28;657953;-69
2022/09/07 13:29:00;;;;;;;4.68;3.08;;;28.50;48.40;;;;;;4383898;28;658563;-69
2022/09/07 13:31:51;;;;;;;5.32;3.13;;;29.00;49.50;;;;;;4385755;28;658656;-69
2022/09/07 13:35:08;;;;;;;6.35;3.10;;;29.50;48.00;;;;;;4383552;28;657707;-69
2022/09/07 13:37:57;;;;;;;13.48;2.92;;;29.30;48.90;;;;;;4363362;28;658283;-69
2022/09/07 13:40:46;;;;;;;6.88;3.13;;;29.20;47.50;;;;;;4405534;28;658229;-68
2022/09/07 13:43:33;;;;;;;8.20;2.40;;;29.00;47.50;;;;;;4383904;28;658146;-69
2022/09/07 13:46:40;;;;;;;9.90;3.45;;;29.00;49.40;;;;;;4392103;28;657467;-67
2022/09/07 13:49:42;;;;;;;7.40;4.03;;;28.60;49.00;;;;;;4360529;28;657944;-68
2022/09/07 13:52:36;;;;;;;9.23;3.15;;;28.80;49.10;;;;;;4382737;28;658097;-69
2022/09/07 13:55:26;;;;;;;9.05;3.08;;;28.70;48.90;;;;;;4380993;28;658454;-69
2022/09/07 13:58:16;;;;;;;8.20;3.13;;;29.00;50.20;;;;;;4382036;28;658246;-69
2022/09/07 14:01:06;;;;;;;7.40;3.00;;;29.20;48.50;;;;;;4381769;28;658183;-69
2022/09/07 14:03:55;;;;;;;11.60;3.55;;;29.20;48.80;;;;;;4382202;28;658543;-69
2022/09/07 14:06:43;;;;;;;7.80;3.28;;;29.40;49.50;;;;;;4379808;28;659936;-69
2022/09/07 14:09:32;;;;;;;11.23;3.58;;;29.80;49.30;;;;;;4395234;28;657582;-67
2022/09/07 14:12:20;;;;;;;8.65;3.55;;;30.00;47.00;;;;;;4399749;28;658655;-69
2022/09/07 14:15:09;;;;;;;11.27;3.58;;;30.20;46.80;;;;;;4386917;28;658706;-68
2022/09/07 14:18:02;;;;;;;12.57;3.92;;;29.70;47.20;;;;;;4382164;28;658335;-68
2022/09/07 14:20:52;;;;;;;9.77;3.22;;;28.90;48.20;;;;;;4376958;28;658741;-68
2022/09/07 14:23:40;;;;;;;5.80;2.92;;;28.70;49.50;;;;;;4403815;28;657280;-69
2022/09/07 14:26:28;;;;;;;17.30;4.82;;;29.40;48.40;;;;;;4383751;28;659277;-69
2022/09/07 14:29:22;;;;;;;162.77;92.85;;;29.90;47.60;;;;;;4393560;28;659295;-68
2022/09/07 14:32:12;;;;;;;11.40;6.65;;;30.00;48.50;;;;;;4400959;28;660976;-67
2022/09/07 14:34:59;;;;;;;27.38;14.82;;;30.10;46.30;;;;;;4404699;28;658784;-69